Main page
METAR-TAF:

METAR-TAF

Airports :

Oil platform

Ekofisk, Norway

latitude: 56-33N, longitude: 003-15E, elevation: 3 m

Current weather observation

The report was made 26 minutes ago, at 18:50 UTC
Wind 44 kt from the West/Southwest
Temperature 8°C
Humidity 87%
Pressure 1003 hPa
Visibility 10 km or more
Broken clouds at a height of 1400 ft
light rain showers

METAR: ENLE 291850Z 24044KT 9999 -SHRA BKN014 08/06 Q1003 W08/S5

Time: 20:16 (19:16 UTC)

Forecast

The report was made 2 hours and 16 minutes ago, at 17:00 UTC
Forecast valid from 29 at 18 UTC to 30 at 03 UTC
Wind 42 kt from the West/Southwest
Visibility 10 km or more
Scattered clouds at a height of 1200 ft
Broken clouds at a height of 5000 ft
Temporary
from 29 at 18 UTC to 29 at 20 UTC
Visibility: 3000 m
Broken clouds at a height of 800 ft
rain, drizzle, mist
Becoming
from 29 at 19 UTC to 29 at 21 UTC
Wind 38 kt from the West/Northwest

TAF: ENLE 291700Z 2918/3003 24042KT 9999 SCT012 BKN050 TEMPO 2918/2920 3000 RADZ BR BKN008 BECMG 2919/2921 30038KT

Weather observations and forecasts of more than 4000 airports (METAR and TAF reports).

The available stations are represented by yellow and red dots on the map.

Hover mouse over dot to see the name of the station.

Then click to see weather observations and forecasts.

To change the map : click on the green buttons with a black cross to zoom in, on the green button with a dash to zoom out, or on the green arrows for adjacent maps.


METAR-TAF: